sensor_id;sensor_type;location;lat;lon;timestamp;temperature;humidity
65378;SHT31;51982;51.042;13.806;2023-07-24T00:01:46;23.93;63.01
65378;SHT31;51982;51.042;13.806;2023-07-24T00:04:11;23.89;63.20
65378;SHT31;51982;51.042;13.806;2023-07-24T00:06:37;23.90;63.45
65378;SHT31;51982;51.042;13.806;2023-07-24T00:09:02;23.89;63.54
65378;SHT31;51982;51.042;13.806;2023-07-24T00:11:27;23.88;63.65
65378;SHT31;51982;51.042;13.806;2023-07-24T00:13:52;23.83;63.63
65378;SHT31;51982;51.042;13.806;2023-07-24T00:16:18;23.83;63.83
65378;SHT31;51982;51.042;13.806;2023-07-24T00:18:43;23.80;64.08
65378;SHT31;51982;51.042;13.806;2023-07-24T00:21:08;23.80;64.26
65378;SHT31;51982;51.042;13.806;2023-07-24T00:23:35;23.78;64.05
65378;SHT31;51982;51.042;13.806;2023-07-24T00:26:00;23.72;64.21
65378;SHT31;51982;51.042;13.806;2023-07-24T00:28:26;23.66;64.31
65378;SHT31;51982;51.042;13.806;2023-07-24T00:30:51;23.66;64.42
65378;SHT31;51982;51.042;13.806;2023-07-24T00:33:16;23.68;64.58
65378;SHT31;51982;51.042;13.806;2023-07-24T00:35:41;23.65;64.60
65378;SHT31;51982;51.042;13.806;2023-07-24T00:38:07;23.66;64.73
65378;SHT31;51982;51.042;13.806;2023-07-24T00:40:32;23.66;64.80
65378;SHT31;51982;51.042;13.806;2023-07-24T00:42:57;23.69;64.97
65378;SHT31;51982;51.042;13.806;2023-07-24T00:45:23;23.68;65.00
65378;SHT31;51982;51.042;13.806;2023-07-24T00:47:48;23.68;64.91
65378;SHT31;51982;51.042;13.806;2023-07-24T00:50:14;23.66;64.93
65378;SHT31;51982;51.042;13.806;2023-07-24T00:52:40;23.61;64.99
65378;SHT31;51982;51.042;13.806;2023-07-24T00:55:07;23.66;65.15
65378;SHT31;51982;51.042;13.806;2023-07-24T00:57:32;23.62;65.05
65378;SHT31;51982;51.042;13.806;2023-07-24T00:59:59;23.61;65.14
65378;SHT31;51982;51.042;13.806;2023-07-24T01:02:25;23.58;65.15
65378;SHT31;51982;51.042;13.806;2023-07-24T01:04:50;23.54;65.05
65378;SHT31;51982;51.042;13.806;2023-07-24T01:07:16;23.55;65.38
65378;SHT31;51982;51.042;13.806;2023-07-24T01:09:42;23.51;65.26
65378;SHT31;51982;51.042;13.806;2023-07-24T01:15:10;23.45;65.14
65378;SHT31;51982;51.042;13.806;2023-07-24T01:17:39;23.44;65.14
65378;SHT31;51982;51.042;13.806;2023-07-24T01:20:08;23.45;65.43
65378;SHT31;51982;51.042;13.806;2023-07-24T01:22:50;23.41;65.60
65378;SHT31;51982;51.042;13.806;2023-07-24T01:25:32;23.38;65.39
65378;SHT31;51982;51.042;13.806;2023-07-24T01:28:00;23.39;65.18
65378;SHT31;51982;51.042;13.806;2023-07-24T01:30:25;23.37;65.28
65378;SHT31;51982;51.042;13.806;2023-07-24T01:32:51;23.39;65.36
65378;SHT31;51982;51.042;13.806;2023-07-24T01:35:16;23.35;65.39
65378;SHT31;51982;51.042;13.806;2023-07-24T01:37:43;23.39;65.53
65378;SHT31;51982;51.042;13.806;2023-07-24T01:40:09;23.37;65.44
65378;SHT31;51982;51.042;13.806;2023-07-24T01:42:35;23.38;65.63
65378;SHT31;51982;51.042;13.806;2023-07-24T01:45:02;23.39;65.66
65378;SHT31;51982;51.042;13.806;2023-07-24T01:47:27;23.39;65.60
65378;SHT31;51982;51.042;13.806;2023-07-24T01:49:53;23.39;65.70
65378;SHT31;51982;51.042;13.806;2023-07-24T01:52:18;23.35;65.71
65378;SHT31;51982;51.042;13.806;2023-07-24T01:54:43;23.31;65.56
65378;SHT31;51982;51.042;13.806;2023-07-24T01:57:08;23.35;65.83
65378;SHT31;51982;51.042;13.806;2023-07-24T01:59:34;23.35;65.83
65378;SHT31;51982;51.042;13.806;2023-07-24T02:01:59;23.32;65.82
65378;SHT31;51982;51.042;13.806;2023-07-24T02:04:24;23.35;65.81
65378;SHT31;51982;51.042;13.806;2023-07-24T02:06:49;23.31;66.05
65378;SHT31;51982;51.042;13.806;2023-07-24T02:09:17;23.29;66.08
65378;SHT31;51982;51.042;13.806;2023-07-24T02:11:42;23.28;66.06
65378;SHT31;51982;51.042;13.806;2023-07-24T02:14:07;23.28;65.93
65378;SHT31;51982;51.042;13.806;2023-07-24T02:16:33;23.27;66.00
65378;SHT31;51982;51.042;13.806;2023-07-24T02:18:58;23.27;66.14
65378;SHT31;51982;51.042;13.806;2023-07-24T02:21:23;23.22;66.15
65378;SHT31;51982;51.042;13.806;2023-07-24T02:23:48;23.24;66.06
65378;SHT31;51982;51.042;13.806;2023-07-24T02:26:14;23.21;66.03
65378;SHT31;51982;51.042;13.806;2023-07-24T02:28:39;23.21;66.17
65378;SHT31;51982;51.042;13.806;2023-07-24T02:31:04;23.18;66.15
65378;SHT31;51982;51.042;13.806;2023-07-24T02:33:29;23.17;66.20
65378;SHT31;51982;51.042;13.806;2023-07-24T02:35:55;23.17;66.23
65378;SHT31;51982;51.042;13.806;2023-07-24T02:38:21;23.11;66.29
65378;SHT31;51982;51.042;13.806;2023-07-24T02:40:46;23.07;66.32
65378;SHT31;51982;51.042;13.806;2023-07-24T02:43:11;23.11;66.53
65378;SHT31;51982;51.042;13.806;2023-07-24T02:45:37;23.11;66.47
65378;SHT31;51982;51.042;13.806;2023-07-24T02:48:03;23.08;66.67
65378;SHT31;51982;51.042;13.806;2023-07-24T02:50:28;23.08;66.72
65378;SHT31;51982;51.042;13.806;2023-07-24T02:52:53;23.11;66.74
65378;SHT31;51982;51.042;13.806;2023-07-24T02:55:19;23.12;67.16
65378;SHT31;51982;51.042;13.806;2023-07-24T02:57:44;23.14;67.08
65378;SHT31;51982;51.042;13.806;2023-07-24T03:00:10;23.08;66.83
65378;SHT31;51982;51.042;13.806;2023-07-24T03:02:35;23.12;66.71
65378;SHT31;51982;51.042;13.806;2023-07-24T03:05:00;23.11;67.03
65378;SHT31;51982;51.042;13.806;2023-07-24T03:07:26;23.11;66.95
65378;SHT31;51982;51.042;13.806;2023-07-24T03:09:51;23.11;66.83
65378;SHT31;51982;51.042;13.806;2023-07-24T03:12:16;23.11;66.94
65378;SHT31;51982;51.042;13.806;2023-07-24T03:14:41;23.11;66.73
65378;SHT31;51982;51.042;13.806;2023-07-24T03:17:07;23.08;66.49
65378;SHT31;51982;51.042;13.806;2023-07-24T03:19:32;23.10;66.41
65378;SHT31;51982;51.042;13.806;2023-07-24T03:21:57;23.12;66.52
65378;SHT31;51982;51.042;13.806;2023-07-24T03:24:22;23.12;66.28
65378;SHT31;51982;51.042;13.806;2023-07-24T03:26:48;23.11;66.28
65378;SHT31;51982;51.042;13.806;2023-07-24T03:29:13;23.14;66.28
65378;SHT31;51982;51.042;13.806;2023-07-24T03:31:38;23.12;66.40
65378;SHT31;51982;51.042;13.806;2023-07-24T03:34:03;23.10;66.40
65378;SHT31;51982;51.042;13.806;2023-07-24T03:36:29;23.15;66.43
65378;SHT31;51982;51.042;13.806;2023-07-24T03:38:54;23.11;66.65
65378;SHT31;51982;51.042;13.806;2023-07-24T03:41:19;23.14;66.47
65378;SHT31;51982;51.042;13.806;2023-07-24T03:43:45;23.14;66.53
65378;SHT31;51982;51.042;13.806;2023-07-24T03:46:10;23.11;66.44
65378;SHT31;51982;51.042;13.806;2023-07-24T03:48:35;23.15;66.35
65378;SHT31;51982;51.042;13.806;2023-07-24T03:51:01;23.17;66.74
65378;SHT31;51982;51.042;13.806;2023-07-24T03:53:27;23.15;67.09
65378;SHT31;51982;51.042;13.806;2023-07-24T03:55:52;23.15;66.67
65378;SHT31;51982;51.042;13.806;2023-07-24T03:58:18;23.15;66.76
65378;SHT31;51982;51.042;13.806;2023-07-24T04:00:43;23.17;66.44
65378;SHT31;51982;51.042;13.806;2023-07-24T04:03:08;23.15;66.44
65378;SHT31;51982;51.042;13.806;2023-07-24T04:05:34;23.17;66.66
65378;SHT31;51982;51.042;13.806;2023-07-24T04:08:00;23.17;66.54
65378;SHT31;51982;51.042;13.806;2023-07-24T04:10:25;23.18;67.08
65378;SHT31;51982;51.042;13.806;2023-07-24T04:12:51;23.19;66.33
65378;SHT31;51982;51.042;13.806;2023-07-24T04:15:17;23.21;66.40
65378;SHT31;51982;51.042;13.806;2023-07-24T04:17:42;23.24;66.58
65378;SHT31;51982;51.042;13.806;2023-07-24T04:20:08;23.28;66.82
65378;SHT31;51982;51.042;13.806;2023-07-24T04:22:33;23.28;66.93
65378;SHT31;51982;51.042;13.806;2023-07-24T04:24:58;23.27;66.84
65378;SHT31;51982;51.042;13.806;2023-07-24T04:27:24;23.25;66.96
65378;SHT31;51982;51.042;13.806;2023-07-24T04:29:49;23.28;67.16
65378;SHT31;51982;51.042;13.806;2023-07-24T04:32:14;23.28;67.26
65378;SHT31;51982;51.042;13.806;2023-07-24T04:34:39;23.27;67.44
65378;SHT31;51982;51.042;13.806;2023-07-24T04:37:05;23.31;67.55
65378;SHT31;51982;51.042;13.806;2023-07-24T04:39:30;23.32;67.81
65378;SHT31;51982;51.042;13.806;2023-07-24T04:41:55;23.34;67.98
65378;SHT31;51982;51.042;13.806;2023-07-24T04:44:21;23.34;68.07
65378;SHT31;51982;51.042;13.806;2023-07-24T04:46:46;23.35;68.34
65378;SHT31;51982;51.042;13.806;2023-07-24T04:49:11;23.34;68.41
65378;SHT31;51982;51.042;13.806;2023-07-24T04:51:36;23.31;68.46
65378;SHT31;51982;51.042;13.806;2023-07-24T04:54:02;23.28;68.80
65378;SHT31;51982;51.042;13.806;2023-07-24T04:56:27;23.29;68.89
65378;SHT31;51982;51.042;13.806;2023-07-24T04:58:52;23.32;69.25
65378;SHT31;51982;51.042;13.806;2023-07-24T05:01:17;23.34;69.60
65378;SHT31;51982;51.042;13.806;2023-07-24T05:03:43;23.37;69.07
65378;SHT31;51982;51.042;13.806;2023-07-24T05:06:08;23.39;69.20
65378;SHT31;51982;51.042;13.806;2023-07-24T05:08:33;23.39;69.32
65378;SHT31;51982;51.042;13.806;2023-07-24T05:10:59;23.41;69.20
65378;SHT31;51982;51.042;13.806;2023-07-24T05:13:25;23.47;69.00
65378;SHT31;51982;51.042;13.806;2023-07-24T05:15:50;23.49;68.78
65378;SHT31;51982;51.042;13.806;2023-07-24T05:18:16;23.54;68.72
65378;SHT31;51982;51.042;13.806;2023-07-24T05:20:45;23.52;68.48
65378;SHT31;51982;51.042;13.806;2023-07-24T05:23:11;23.58;68.42
65378;SHT31;51982;51.042;13.806;2023-07-24T05:25:36;23.62;68.50
65378;SHT31;51982;51.042;13.806;2023-07-24T05:28:02;23.62;68.43
65378;SHT31;51982;51.042;13.806;2023-07-24T05:30:27;23.63;68.41
65378;SHT31;51982;51.042;13.806;2023-07-24T05:32:53;23.68;68.80
65378;SHT31;51982;51.042;13.806;2023-07-24T05:35:18;23.72;69.23
65378;SHT31;51982;51.042;13.806;2023-07-24T05:37:44;23.73;68.99
65378;SHT31;51982;51.042;13.806;2023-07-24T05:40:09;23.73;69.19
65378;SHT31;51982;51.042;13.806;2023-07-24T05:42:34;23.75;68.91
65378;SHT31;51982;51.042;13.806;2023-07-24T05:45:07;23.75;68.95
65378;SHT31;51982;51.042;13.806;2023-07-24T05:47:32;23.75;69.14
65378;SHT31;51982;51.042;13.806;2023-07-24T05:49:58;23.75;68.66
65378;SHT31;51982;51.042;13.806;2023-07-24T05:52:23;23.76;68.54
65378;SHT31;51982;51.042;13.806;2023-07-24T05:54:48;23.82;68.76
65378;SHT31;51982;51.042;13.806;2023-07-24T05:57:13;23.80;68.49
65378;SHT31;51982;51.042;13.806;2023-07-24T05:59:39;23.89;68.47
65378;SHT31;51982;51.042;13.806;2023-07-24T06:02:04;23.90;68.10
65378;SHT31;51982;51.042;13.806;2023-07-24T06:04:30;23.93;68.28
65378;SHT31;51982;51.042;13.806;2023-07-24T06:06:55;24.00;68.56
65378;SHT31;51982;51.042;13.806;2023-07-24T06:09:21;24.06;68.41
65378;SHT31;51982;51.042;13.806;2023-07-24T06:11:46;24.09;68.03
65378;SHT31;51982;51.042;13.806;2023-07-24T06:14:11;24.12;67.81
65378;SHT31;51982;51.042;13.806;2023-07-24T06:16:36;24.14;67.67
65378;SHT31;51982;51.042;13.806;2023-07-24T06:19:02;24.17;67.87
65378;SHT31;51982;51.042;13.806;2023-07-24T06:21:27;24.21;67.70
65378;SHT31;51982;51.042;13.806;2023-07-24T06:23:52;24.20;67.68
65378;SHT31;51982;51.042;13.806;2023-07-24T06:26:17;24.23;67.83
65378;SHT31;51982;51.042;13.806;2023-07-24T06:28:43;24.24;67.52
65378;SHT31;51982;51.042;13.806;2023-07-24T06:31:08;24.33;67.52
65378;SHT31;51982;51.042;13.806;2023-07-24T06:33:33;24.43;67.32
65378;SHT31;51982;51.042;13.806;2023-07-24T06:35:58;24.46;67.07
65378;SHT31;51982;51.042;13.806;2023-07-24T06:38:24;24.56;66.99
65378;SHT31;51982;51.042;13.806;2023-07-24T06:40:49;24.59;67.01
65378;SHT31;51982;51.042;13.806;2023-07-24T06:43:14;24.64;66.94
65378;SHT31;51982;51.042;13.806;2023-07-24T06:45:39;24.68;66.96
65378;SHT31;51982;51.042;13.806;2023-07-24T06:48:05;24.74;66.81
65378;SHT31;51982;51.042;13.806;2023-07-24T06:50:30;24.74;66.72
65378;SHT31;51982;51.042;13.806;2023-07-24T06:52:55;24.78;66.58
65378;SHT31;51982;51.042;13.806;2023-07-24T06:55:20;24.82;66.61
65378;SHT31;51982;51.042;13.806;2023-07-24T06:57:46;24.94;66.40
65378;SHT31;51982;51.042;13.806;2023-07-24T07:00:12;25.01;66.38
65378;SHT31;51982;51.042;13.806;2023-07-24T07:02:38;25.07;65.58
65378;SHT31;51982;51.042;13.806;2023-07-24T07:05:04;25.19;65.84
65378;SHT31;51982;51.042;13.806;2023-07-24T07:07:29;25.28;65.90
65378;SHT31;51982;51.042;13.806;2023-07-24T07:09:55;25.38;65.69
65378;SHT31;51982;51.042;13.806;2023-07-24T07:12:20;25.45;65.46
65378;SHT31;51982;51.042;13.806;2023-07-24T07:14:45;25.52;65.40
65378;SHT31;51982;51.042;13.806;2023-07-24T07:17:10;25.61;65.57
65378;SHT31;51982;51.042;13.806;2023-07-24T07:19:36;25.69;65.53
65378;SHT31;51982;51.042;13.806;2023-07-24T07:22:01;25.76;64.93
65378;SHT31;51982;51.042;13.806;2023-07-24T07:24:26;25.84;64.58
65378;SHT31;51982;51.042;13.806;2023-07-24T07:26:51;25.92;64.61
65378;SHT31;51982;51.042;13.806;2023-07-24T07:29:17;25.98;64.79
65378;SHT31;51982;51.042;13.806;2023-07-24T07:31:42;26.07;64.54
65378;SHT31;51982;51.042;13.806;2023-07-24T07:34:07;26.12;64.33
65378;SHT31;51982;51.042;13.806;2023-07-24T07:36:32;26.17;64.38
65378;SHT31;51982;51.042;13.806;2023-07-24T07:38:58;26.23;63.29
65378;SHT31;51982;51.042;13.806;2023-07-24T07:41:23;26.26;62.41
65378;SHT31;51982;51.042;13.806;2023-07-24T07:43:48;26.33;61.68
65378;SHT31;51982;51.042;13.806;2023-07-24T07:46:13;26.37;61.16
65378;SHT31;51982;51.042;13.806;2023-07-24T07:48:39;26.40;60.76
65378;SHT31;51982;51.042;13.806;2023-07-24T07:51:05;26.38;60.39
65378;SHT31;51982;51.042;13.806;2023-07-24T07:53:30;26.45;60.42
65378;SHT31;51982;51.042;13.806;2023-07-24T07:55:57;26.49;60.32
65378;SHT31;51982;51.042;13.806;2023-07-24T07:58:23;26.55;60.58
65378;SHT31;51982;51.042;13.806;2023-07-24T08:00:49;26.62;60.54
65378;SHT31;51982;51.042;13.806;2023-07-24T08:03:14;26.64;60.13
65378;SHT31;51982;51.042;13.806;2023-07-24T08:05:39;26.59;60.16
65378;SHT31;51982;51.042;13.806;2023-07-24T08:08:05;26.57;60.28
65378;SHT31;51982;51.042;13.806;2023-07-24T08:10:30;26.55;60.24
65378;SHT31;51982;51.042;13.806;2023-07-24T08:12:55;26.54;59.95
65378;SHT31;51982;51.042;13.806;2023-07-24T08:15:20;26.54;60.02
65378;SHT31;51982;51.042;13.806;2023-07-24T08:17:45;26.54;60.35
65378;SHT31;51982;51.042;13.806;2023-07-24T08:20:11;26.54;59.99
65378;SHT31;51982;51.042;13.806;2023-07-24T08:22:36;26.54;59.78
65378;SHT31;51982;51.042;13.806;2023-07-24T08:25:02;26.52;59.06
65378;SHT31;51982;51.042;13.806;2023-07-24T08:27:27;26.52;59.00
65378;SHT31;51982;51.042;13.806;2023-07-24T08:29:53;26.55;59.34
65378;SHT31;51982;51.042;13.806;2023-07-24T08:32:19;26.55;59.80
65378;SHT31;51982;51.042;13.806;2023-07-24T08:34:44;26.57;59.69
65378;SHT31;51982;51.042;13.806;2023-07-24T08:37:11;26.64;59.38
65378;SHT31;51982;51.042;13.806;2023-07-24T08:39:36;26.65;59.44
65378;SHT31;51982;51.042;13.806;2023-07-24T08:42:08;26.71;59.25
65378;SHT31;51982;51.042;13.806;2023-07-24T08:44:34;26.74;59.18
65378;SHT31;51982;51.042;13.806;2023-07-24T08:47:00;26.79;59.14
65378;SHT31;51982;51.042;13.806;2023-07-24T08:49:26;26.87;59.24
65378;SHT31;51982;51.042;13.806;2023-07-24T08:51:52;26.91;59.20
65378;SHT31;51982;51.042;13.806;2023-07-24T08:54:19;26.95;59.22
65378;SHT31;51982;51.042;13.806;2023-07-24T08:56:44;27.00;58.84
65378;SHT31;51982;51.042;13.806;2023-07-24T08:59:13;27.05;58.55
65378;SHT31;51982;51.042;13.806;2023-07-24T09:01:39;27.09;58.62
65378;SHT31;51982;51.042;13.806;2023-07-24T09:04:04;27.22;59.33
65378;SHT31;51982;51.042;13.806;2023-07-24T09:06:30;27.29;59.27
65378;SHT31;51982;51.042;13.806;2023-07-24T09:08:55;27.36;59.61
65378;SHT31;51982;51.042;13.806;2023-07-24T09:11:20;27.43;59.25
65378;SHT31;51982;51.042;13.806;2023-07-24T09:13:45;27.54;59.14
65378;SHT31;51982;51.042;13.806;2023-07-24T09:16:25;27.64;59.44
65378;SHT31;51982;51.042;13.806;2023-07-24T09:18:51;27.74;59.36
65378;SHT31;51982;51.042;13.806;2023-07-24T09:21:27;27.80;58.56
65378;SHT31;51982;51.042;13.806;2023-07-24T09:23:53;27.89;58.76
65378;SHT31;51982;51.042;13.806;2023-07-24T09:26:19;27.96;58.60
65378;SHT31;51982;51.042;13.806;2023-07-24T09:28:51;28.01;58.50
65378;SHT31;51982;51.042;13.806;2023-07-24T09:31:17;28.12;58.06
65378;SHT31;51982;51.042;13.806;2023-07-24T09:33:43;28.15;57.80
65378;SHT31;51982;51.042;13.806;2023-07-24T09:36:11;28.21;57.95
65378;SHT31;51982;51.042;13.806;2023-07-24T09:38:38;28.31;58.28
65378;SHT31;51982;51.042;13.806;2023-07-24T09:41:04;28.34;57.96
65378;SHT31;51982;51.042;13.806;2023-07-24T09:43:31;28.40;57.79
65378;SHT31;51982;51.042;13.806;2023-07-24T09:45:57;28.45;57.55
65378;SHT31;51982;51.042;13.806;2023-07-24T09:48:24;28.48;57.43
65378;SHT31;51982;51.042;13.806;2023-07-24T09:50:53;28.55;57.50
65378;SHT31;51982;51.042;13.806;2023-07-24T09:53:46;28.55;58.15
65378;SHT31;51982;51.042;13.806;2023-07-24T09:56:14;28.55;58.25
65378;SHT31;51982;51.042;13.806;2023-07-24T09:58:40;28.53;57.94
65378;SHT31;51982;51.042;13.806;2023-07-24T10:01:09;28.52;58.47
65378;SHT31;51982;51.042;13.806;2023-07-24T10:03:37;28.53;58.44
65378;SHT31;51982;51.042;13.806;2023-07-24T10:06:03;28.55;58.39
65378;SHT31;51982;51.042;13.806;2023-07-24T10:08:30;28.51;58.19
65378;SHT31;51982;51.042;13.806;2023-07-24T10:10:58;28.49;58.33
65378;SHT31;51982;51.042;13.806;2023-07-24T10:13:26;28.45;58.33
65378;SHT31;51982;51.042;13.806;2023-07-24T10:15:52;28.42;58.48
65378;SHT31;51982;51.042;13.806;2023-07-24T10:18:17;28.42;58.51
65378;SHT31;51982;51.042;13.806;2023-07-24T10:21:00;28.41;58.52
65378;SHT31;51982;51.042;13.806;2023-07-24T10:23:26;28.49;58.69
65378;SHT31;51982;51.042;13.806;2023-07-24T10:25:52;28.53;59.05
65378;SHT31;51982;51.042;13.806;2023-07-24T10:28:17;28.59;58.54
65378;SHT31;51982;51.042;13.806;2023-07-24T10:30:44;28.61;58.57
65378;SHT31;51982;51.042;13.806;2023-07-24T10:33:17;28.63;58.84
65378;SHT31;51982;51.042;13.806;2023-07-24T10:35:47;28.56;58.91
65378;SHT31;51982;51.042;13.806;2023-07-24T10:38:15;28.49;58.81
65378;SHT31;51982;51.042;13.806;2023-07-24T10:40:41;28.40;58.90
65378;SHT31;51982;51.042;13.806;2023-07-24T10:43:09;28.31;59.37
65378;SHT31;51982;51.042;13.806;2023-07-24T10:45:49;28.22;60.25
65378;SHT31;51982;51.042;13.806;2023-07-24T10:48:19;28.18;60.56
65378;SHT31;51982;51.042;13.806;2023-07-24T10:50:49;28.15;60.98
65378;SHT31;51982;51.042;13.806;2023-07-24T10:53:17;28.15;61.88
65378;SHT31;51982;51.042;13.806;2023-07-24T10:55:43;28.17;62.33
65378;SHT31;51982;51.042;13.806;2023-07-24T10:58:09;28.11;62.15
65378;SHT31;51982;51.042;13.806;2023-07-24T11:00:35;28.02;62.10
65378;SHT31;51982;51.042;13.806;2023-07-24T11:03:01;27.94;62.21
65378;SHT31;51982;51.042;13.806;2023-07-24T11:05:26;27.86;62.40
65378;SHT31;51982;51.042;13.806;2023-07-24T11:07:52;27.86;63.04
65378;SHT31;51982;51.042;13.806;2023-07-24T11:10:21;27.90;63.72
65378;SHT31;51982;51.042;13.806;2023-07-24T11:12:47;27.94;64.31
65378;SHT31;51982;51.042;13.806;2023-07-24T11:15:13;27.97;64.00
65378;SHT31;51982;51.042;13.806;2023-07-24T11:17:40;28.02;64.34
65378;SHT31;51982;51.042;13.806;2023-07-24T11:20:14;28.05;64.06
65378;SHT31;51982;51.042;13.806;2023-07-24T11:22:40;28.11;63.96
65378;SHT31;51982;51.042;13.806;2023-07-24T11:25:06;28.15;63.64
65378;SHT31;51982;51.042;13.806;2023-07-24T11:27:32;28.17;63.51
65378;SHT31;51982;51.042;13.806;2023-07-24T11:29:58;28.21;63.72
65378;SHT31;51982;51.042;13.806;2023-07-24T11:32:23;28.22;63.81
65378;SHT31;51982;51.042;13.806;2023-07-24T11:34:50;28.27;63.47
65378;SHT31;51982;51.042;13.806;2023-07-24T11:37:16;28.24;63.33
65378;SHT31;51982;51.042;13.806;2023-07-24T11:39:41;28.28;63.33
65378;SHT31;51982;51.042;13.806;2023-07-24T11:42:07;28.29;63.16
65378;SHT31;51982;51.042;13.806;2023-07-24T11:44:32;28.32;63.17
65378;SHT31;51982;51.042;13.806;2023-07-24T11:47:05;28.27;62.90
65378;SHT31;51982;51.042;13.806;2023-07-24T11:49:32;28.34;63.21
65378;SHT31;51982;51.042;13.806;2023-07-24T11:52:04;28.29;63.36
65378;SHT31;51982;51.042;13.806;2023-07-24T11:54:30;28.25;63.75
65378;SHT31;51982;51.042;13.806;2023-07-24T11:56:56;28.28;64.04
65378;SHT31;51982;51.042;13.806;2023-07-24T11:59:21;28.27;63.71
65378;SHT31;51982;51.042;13.806;2023-07-24T12:01:47;28.24;64.02
65378;SHT31;51982;51.042;13.806;2023-07-24T12:04:13;28.32;64.20
65378;SHT31;51982;51.042;13.806;2023-07-24T12:06:38;28.35;64.33
65378;SHT31;51982;51.042;13.806;2023-07-24T12:09:04;28.45;64.51
65378;SHT31;51982;51.042;13.806;2023-07-24T12:11:31;28.47;64.26
65378;SHT31;51982;51.042;13.806;2023-07-24T12:13:56;28.49;64.41
65378;SHT31;51982;51.042;13.806;2023-07-24T12:16:21;28.51;64.06
65378;SHT31;51982;51.042;13.806;2023-07-24T12:18:47;28.52;64.27
65378;SHT31;51982;51.042;13.806;2023-07-24T12:21:12;28.48;64.16
65378;SHT31;51982;51.042;13.806;2023-07-24T12:23:37;28.49;64.21
65378;SHT31;51982;51.042;13.806;2023-07-24T12:26:03;28.52;64.15
65378;SHT31;51982;51.042;13.806;2023-07-24T12:28:28;28.48;63.97
65378;SHT31;51982;51.042;13.806;2023-07-24T12:30:53;28.44;63.63
65378;SHT31;51982;51.042;13.806;2023-07-24T12:33:18;28.42;63.53
65378;SHT31;51982;51.042;13.806;2023-07-24T12:35:48;28.37;63.48
65378;SHT31;51982;51.042;13.806;2023-07-24T12:38:13;28.27;63.42
65378;SHT31;51982;51.042;13.806;2023-07-24T12:40:38;28.25;63.52
65378;SHT31;51982;51.042;13.806;2023-07-24T12:43:04;28.18;63.43
65378;SHT31;51982;51.042;13.806;2023-07-24T12:45:29;28.11;63.55
65378;SHT31;51982;51.042;13.806;2023-07-24T12:47:54;28.08;63.95
65378;SHT31;51982;51.042;13.806;2023-07-24T12:50:20;28.01;64.65
65378;SHT31;51982;51.042;13.806;2023-07-24T12:52:46;27.90;64.91
65378;SHT31;51982;51.042;13.806;2023-07-24T12:55:11;27.86;64.90
65378;SHT31;51982;51.042;13.806;2023-07-24T12:57:37;27.81;65.09
65378;SHT31;51982;51.042;13.806;2023-07-24T13:00:02;27.69;64.66
65378;SHT31;51982;51.042;13.806;2023-07-24T13:02:28;27.53;65.11
65378;SHT31;51982;51.042;13.806;2023-07-24T13:04:53;27.33;66.04
65378;SHT31;51982;51.042;13.806;2023-07-24T13:07:18;27.05;67.81
65378;SHT31;51982;51.042;13.806;2023-07-24T13:09:44;26.91;68.78
65378;SHT31;51982;51.042;13.806;2023-07-24T13:12:09;26.77;69.86
65378;SHT31;51982;51.042;13.806;2023-07-24T13:14:34;26.67;70.75
65378;SHT31;51982;51.042;13.806;2023-07-24T13:17:00;26.64;71.23
65378;SHT31;51982;51.042;13.806;2023-07-24T13:19:25;26.47;72.31
65378;SHT31;51982;51.042;13.806;2023-07-24T13:21:50;26.47;72.43
65378;SHT31;51982;51.042;13.806;2023-07-24T13:24:15;26.59;72.54
65378;SHT31;51982;51.042;13.806;2023-07-24T13:26:41;26.64;73.00
65378;SHT31;51982;51.042;13.806;2023-07-24T13:29:06;26.71;73.44
65378;SHT31;51982;51.042;13.806;2023-07-24T13:31:31;26.78;72.76
65378;SHT31;51982;51.042;13.806;2023-07-24T13:33:57;26.82;72.61
65378;SHT31;51982;51.042;13.806;2023-07-24T13:36:22;26.84;72.99
65378;SHT31;51982;51.042;13.806;2023-07-24T13:38:47;26.88;72.95
65378;SHT31;51982;51.042;13.806;2023-07-24T13:41:13;26.89;72.84
65378;SHT31;51982;51.042;13.806;2023-07-24T13:43:38;26.94;72.70
65378;SHT31;51982;51.042;13.806;2023-07-24T13:46:03;26.96;72.39
65378;SHT31;51982;51.042;13.806;2023-07-24T13:48:29;26.96;72.43
65378;SHT31;51982;51.042;13.806;2023-07-24T13:50:55;27.03;72.28
65378;SHT31;51982;51.042;13.806;2023-07-24T13:53:20;27.12;72.34
65378;SHT31;51982;51.042;13.806;2023-07-24T13:55:46;27.18;72.14
65378;SHT31;51982;51.042;13.806;2023-07-24T13:58:11;27.22;71.60
65378;SHT31;51982;51.042;13.806;2023-07-24T14:00:37;27.23;71.59
65378;SHT31;51982;51.042;13.806;2023-07-24T14:03:02;27.16;71.43
65378;SHT31;51982;51.042;13.806;2023-07-24T14:05:27;27.22;71.42
65378;SHT31;51982;51.042;13.806;2023-07-24T14:07:53;27.25;71.12
65378;SHT31;51982;51.042;13.806;2023-07-24T14:10:19;27.26;70.92
65378;SHT31;51982;51.042;13.806;2023-07-24T14:12:44;27.35;70.80
65378;SHT31;51982;51.042;13.806;2023-07-24T14:15:09;27.36;70.39
65378;SHT31;51982;51.042;13.806;2023-07-24T14:17:35;27.43;70.14
65378;SHT31;51982;51.042;13.806;2023-07-24T14:20:01;27.51;69.98
65378;SHT31;51982;51.042;13.806;2023-07-24T14:22:27;27.54;69.38
65378;SHT31;51982;51.042;13.806;2023-07-24T14:24:52;27.49;69.02
65378;SHT31;51982;51.042;13.806;2023-07-24T14:27:17;27.51;68.55
65378;SHT31;51982;51.042;13.806;2023-07-24T14:29:42;27.53;69.36
65378;SHT31;51982;51.042;13.806;2023-07-24T14:32:08;27.56;69.90
65378;SHT31;51982;51.042;13.806;2023-07-24T14:34:33;27.56;70.79
65378;SHT31;51982;51.042;13.806;2023-07-24T14:36:58;27.56;71.05
65378;SHT31;51982;51.042;13.806;2023-07-24T14:39:24;27.56;70.38
65378;SHT31;51982;51.042;13.806;2023-07-24T14:41:49;27.46;68.12
65378;SHT31;51982;51.042;13.806;2023-07-24T14:44:14;27.43;67.65
65378;SHT31;51982;51.042;13.806;2023-07-24T14:46:39;27.40;67.49
65378;SHT31;51982;51.042;13.806;2023-07-24T14:49:05;27.40;67.31
65378;SHT31;51982;51.042;13.806;2023-07-24T14:51:30;27.49;67.14
65378;SHT31;51982;51.042;13.806;2023-07-24T14:53:55;27.43;66.88
65378;SHT31;51982;51.042;13.806;2023-07-24T14:56:21;27.45;66.81
65378;SHT31;51982;51.042;13.806;2023-07-24T14:58:46;27.53;66.71
65378;SHT31;51982;51.042;13.806;2023-07-24T15:01:12;27.53;66.74
65378;SHT31;51982;51.042;13.806;2023-07-24T15:03:37;27.57;66.42
65378;SHT31;51982;51.042;13.806;2023-07-24T15:06:02;27.66;66.51
65378;SHT31;51982;51.042;13.806;2023-07-24T15:08:30;27.70;66.65
65378;SHT31;51982;51.042;13.806;2023-07-24T15:10:55;27.71;66.93